Bunker Hill, Ohio
Current Conditions -  °F | °C
As of 6:56 AM on Sunday 25 Jan 2015 (Local Time) from KBJJ Reporting Station
Haze Haze  
Wind Chill: 28°   Ceiling: 1400
Heat Index: 33°   Visibility: 6mi
Dew Point: 30°   Wind: 6mph
Humidity: 89%   Direction: 220°SW
Pressure: 29.74"   Gusts: NA
Location:  40.5444°N, 81.851°W
Report Text: KBJJ 251156Z AUTO 22005KT 6SM BR OVC014 01/M01 A2974 RMK AO2 SLP083 T00061011 10006 20006 53006 TSNO
Loading
Personal Weather Stations






























Interactive Weather Map New forecast layout! Learn more

10-Day Weather Forecast

Advertisements
Track Severe Weather on mobile